Terminal Aerodrome Forecast
Issued by NWS Sioux Falls, SD

Home | Current Version | Previous Version | Text Only | Print | Product List | Glossary Off
Versions: 1 2 3 4 5 6 7 8 9 10 11 12 13

000
FTUS43 KFSD 150523
TAFFSD
TAF
KFSD 150523Z 1506/1606 33014G22KT P6SM SCT015 BKN025 OVC100
     FM150800 32012KT P6SM BKN035
     FM151000 31010KT P6SM SKC
     FM151300 29007KT P6SM SKC
     FM152000 27012KT P6SM SKC
     FM160000 27005KT P6SM SKC=

USA.gov is the U.S. government's official web portal to all federal, state and local government web resources and services.